Time;durP1;ratioP1;P1;durP2;ratioP2;P2;SDS_P1;SDS_P2;PMS_P1;PMS_P2;Temp;Humidity;BMP_temperature;BMP_pressure;BME280_temperature;BME280_humidity;BME280_pressure;Samples;Min_cycle;Max_cycle;Signal;HPM_P1;HPM_P2
2023/12/31 00:01:18;;;;;;;;;;;;;;;3.02;96.62;95620.44;5115922;28;993;-58
2023/12/31 00:03:50;;;;;;;;;;;;;;;2.92;96.31;95621.06;5115923;28;1210;-58
2023/12/31 00:06:25;;;;;;;;;;;;;;;2.90;96.40;95617.69;5115710;28;1000;-58
2023/12/31 00:08:59;;;;;;;;;;;;;;;2.90;96.43;95622.97;5115695;28;913;-58
2023/12/31 00:11:34;;;;;;;;;;;;;;;2.88;95.41;95621.34;5114387;28;988;-58
2023/12/31 00:14:08;;;;;;;;;;;;;;;2.80;95.79;95615.75;5115730;28;941;-57
2023/12/31 00:16:42;;;;;;;;;;;;;;;2.68;97.19;95618.25;5115319;28;1676;-58
2023/12/31 00:19:17;;;;;;;;;;;;;;;2.74;97.99;95609.09;5098445;28;984;-58
2023/12/31 00:21:51;;;;;;;;;;;;;;;2.89;97.19;95596.66;5115234;28;937;-58
2023/12/31 00:24:25;;;;;;;;;;;;;;;2.96;97.33;95597.94;5115477;28;1004;-57
2023/12/31 00:27:00;;;;;;;;;;;;;;;3.03;97.04;95593.91;5115315;28;984;-57
2023/12/31 00:29:34;;;;;;;;;;;;;;;3.11;97.87;95594.25;5094711;28;941;-58
2023/12/31 00:32:08;;;;;;;;;;;;;;;3.05;96.93;95593.81;5095032;28;1017;-57
2023/12/31 00:34:40;;;;;;;;;;;;;;;3.00;96.94;95594.13;5094703;28;1497;-58
2023/12/31 00:37:14;;;;;;;;;;;;;;;2.97;97.26;95596.97;5094702;28;1910;-58
2023/12/31 00:39:49;;;;;;;;;;;;;;;2.95;98.06;95590.94;5094900;28;894;-57
2023/12/31 00:42:23;;;;;;;;;;;;;;;3.03;100.00;95598.34;5094473;28;905;-58
2023/12/31 00:44:57;;;;;;;;;;;;;;;3.22;98.36;95588.19;5094434;28;1028;-57
2023/12/31 00:47:33;;;;;;;;;;;;;;;3.17;97.77;95590.34;5094641;28;960;-57
2023/12/31 00:50:07;;;;;;;;;;;;;;;3.12;98.01;95595.91;5094574;28;978;-57
2023/12/31 00:52:42;;;;;;;;;;;;;;;3.27;97.80;95585.25;5094491;28;996;-58
2023/12/31 00:55:16;;;;;;;;;;;;;;;3.32;97.48;95589.28;5094432;28;953;-58
2023/12/31 00:57:50;;;;;;;;;;;;;;;3.21;97.56;95591.81;5094425;28;1913;-58
2023/12/31 01:00:25;;;;;;;;;;;;;;;2.99;99.28;95588.94;5094084;28;965;-58
2023/12/31 01:02:59;;;;;;;;;;;;;;;3.16;99.69;95590.44;5094249;28;1041;-58
2023/12/31 01:05:33;;;;;;;;;;;;;;;3.25;98.57;95600.38;5094351;28;953;-58
2023/12/31 01:08:08;;;;;;;;;;;;;;;3.17;98.98;95592.97;5094373;28;931;-58
2023/12/31 01:10:42;;;;;;;;;;;;;;;3.00;100.00;95595.91;5094364;28;972;-57
2023/12/31 01:13:16;;;;;;;;;;;;;;;3.07;99.29;95591.91;5094212;28;1005;-58
2023/12/31 01:15:50;;;;;;;;;;;;;;;3.12;98.54;95587.16;5093850;28;1239;-58
2023/12/31 01:18:25;;;;;;;;;;;;;;;3.12;98.69;95588.00;5093958;28;1981;-58
2023/12/31 01:21:00;;;;;;;;;;;;;;;3.18;98.55;95580.59;5093940;28;1478;-58
2023/12/31 01:23:34;;;;;;;;;;;;;;;3.18;98.37;95583.25;5093471;28;993;-57
2023/12/31 01:26:09;;;;;;;;;;;;;;;3.18;98.10;95581.44;5093795;28;961;-57
2023/12/31 01:28:43;;;;;;;;;;;;;;;3.10;97.27;95576.69;5093896;28;1142;-58
2023/12/31 01:31:18;;;;;;;;;;;;;;;2.95;97.44;95566.34;5093882;28;945;-58
2023/12/31 01:33:52;;;;;;;;;;;;;;;2.90;99.67;95567.50;5093800;28;993;-58
2023/12/31 01:36:27;;;;;;;;;;;;;;;3.00;98.38;95574.75;5093633;28;950;-58
2023/12/31 01:39:01;;;;;;;;;;;;;;;3.06;98.53;95564.63;5093867;28;1905;-58
2023/12/31 01:41:35;;;;;;;;;;;;;;;3.11;97.67;95570.47;5093820;28;1001;-58
2023/12/31 01:44:10;;;;;;;;;;;;;;;2.81;96.86;95565.47;5093682;28;929;-57
2023/12/31 01:46:45;;;;;;;;;;;;;;;2.83;98.39;95571.50;5093589;28;958;-57
2023/12/31 01:49:20;;;;;;;;;;;;;;;2.93;98.32;95556.69;5093701;28;933;-57
2023/12/31 01:51:52;;;;;;;;;;;;;;;2.96;98.45;95562.72;5093244;28;1634;-58
2023/12/31 01:54:27;;;;;;;;;;;;;;;2.98;98.88;95556.41;5093338;28;932;-58
2023/12/31 01:57:01;;;;;;;;;;;;;;;3.01;98.28;95545.59;5093314;28;1996;-58
2023/12/31 01:59:36;;;;;;;;;;;;;;;3.01;98.45;95553.53;5093843;28;926;-57
2023/12/31 02:02:11;;;;;;;;;;;;;;;3.06;98.07;95545.31;5093246;28;933;-58
2023/12/31 02:04:44;;;;;;;;;;;;;;;3.07;98.13;95545.22;5093619;28;925;-58
2023/12/31 02:07:18;;;;;;;;;;;;;;;3.17;98.12;95541.91;5093338;28;969;-58
2023/12/31 02:09:53;;;;;;;;;;;;;;;3.12;97.39;95547.53;5093296;28;961;-58
2023/12/31 02:12:27;;;;;;;;;;;;;;;3.13;97.21;95546.59;5093145;28;965;-58
2023/12/31 02:15:01;;;;;;;;;;;;;;;3.10;97.19;95544.16;5099348;28;1238;-58
2023/12/31 02:17:36;;;;;;;;;;;;;;;3.05;98.24;95548.88;5113728;28;1975;-58
2023/12/31 02:20:10;;;;;;;;;;;;;;;2.94;98.36;95549.66;5113776;28;999;-58
2023/12/31 02:22:44;;;;;;;;;;;;;;;2.98;98.57;95547.59;5113521;28;918;-58
2023/12/31 02:25:22;;;;;;;;;;;;;;;3.01;98.99;95547.41;5113326;28;1077;-58
2023/12/31 02:27:56;;;;;;;;;;;;;;;2.97;98.46;95549.41;5113625;28;1189;-58
2023/12/31 02:30:31;;;;;;;;;;;;;;;2.87;98.90;95543.09;5113643;28;921;-58
2023/12/31 02:33:05;;;;;;;;;;;;;;;3.01;98.87;95536.84;5113272;28;973;-58
2023/12/31 02:35:40;;;;;;;;;;;;;;;3.08;98.52;95538.13;5117050;28;980;-58
2023/12/31 02:38:13;;;;;;;;;;;;;;;3.07;98.49;95525.84;5117191;28;1995;-58
2023/12/31 02:40:48;;;;;;;;;;;;;;;3.02;98.63;95527.97;5117614;28;933;-58
2023/12/31 02:43:22;;;;;;;;;;;;;;;3.08;98.72;95524.91;5117519;28;1004;-58
2023/12/31 02:45:56;;;;;;;;;;;;;;;3.12;98.91;95527.22;5117501;28;1146;-58
2023/12/31 02:48:30;;;;;;;;;;;;;;;3.20;98.66;95526.69;5117133;28;992;-57
2023/12/31 02:51:07;;;;;;;;;;;;;;;3.19;97.96;95519.72;5117443;28;936;-58
2023/12/31 02:53:41;;;;;;;;;;;;;;;3.11;97.86;95527.31;5117276;28;996;-58
2023/12/31 02:56:13;;;;;;;;;;;;;;;3.05;98.66;95528.59;5117110;28;1364;-58
2023/12/31 02:58:48;;;;;;;;;;;;;;;3.15;99.00;95528.81;5117131;28;1906;-58
2023/12/31 03:01:22;;;;;;;;;;;;;;;3.21;98.64;95528.38;5116878;28;1856;-58
2023/12/31 03:03:56;;;;;;;;;;;;;;;3.20;98.26;95525.84;5117192;28;953;-58
2023/12/31 03:06:32;;;;;;;;;;;;;;;3.10;98.87;95530.94;5116894;28;1612;-58
2023/12/31 03:09:06;;;;;;;;;;;;;;;2.88;99.44;95535.06;5116969;28;986;-57
2023/12/31 03:11:40;;;;;;;;;;;;;;;2.87;100.00;95532.53;5116701;28;933;-58
2023/12/31 03:14:15;;;;;;;;;;;;;;;2.85;100.00;95534.41;5116743;28;954;-58
2023/12/31 03:16:49;;;;;;;;;;;;;;;2.91;99.49;95534.00;5116769;28;1016;-58
2023/12/31 03:19:22;;;;;;;;;;;;;;;2.91;98.80;95529.56;5116694;28;1647;-58
2023/12/31 03:21:56;;;;;;;;;;;;;;;2.91;98.68;95532.19;5116871;28;957;-58
2023/12/31 03:24:30;;;;;;;;;;;;;;;2.83;98.98;95538.97;5116604;28;921;-58
2023/12/31 03:27:05;;;;;;;;;;;;;;;2.86;100.00;95534.28;5116480;28;944;-58
2023/12/31 03:29:39;;;;;;;;;;;;;;;2.77;100.00;95537.59;5096007;28;965;-58
2023/12/31 03:32:12;;;;;;;;;;;;;;;2.79;100.00;95540.09;5095611;28;1593;-58
2023/12/31 03:34:44;;;;;;;;;;;;;;;2.95;99.76;95542.56;5096115;28;942;-58
2023/12/31 03:37:18;;;;;;;;;;;;;;;3.04;99.12;95544.56;5095902;28;1913;-58
2023/12/31 03:39:54;;;;;;;;;;;;;;;3.01;99.02;95539.50;5095911;28;925;-58
2023/12/31 03:42:28;;;;;;;;;;;;;;;2.93;98.79;95537.38;5095916;28;1036;-58
2023/12/31 03:45:03;;;;;;;;;;;;;;;2.81;99.73;95546.13;5095717;28;984;-57
2023/12/31 03:47:37;;;;;;;;;;;;;;;2.95;100.00;95547.84;5095943;28;944;-58
2023/12/31 03:50:12;;;;;;;;;;;;;;;3.01;99.22;95540.31;5095718;28;1017;-58
2023/12/31 03:52:44;;;;;;;;;;;;;;;2.98;99.09;95545.84;5095644;28;989;-58
2023/12/31 03:55:18;;;;;;;;;;;;;;;3.08;97.91;95540.75;5095747;28;1020;-58
2023/12/31 03:57:53;;;;;;;;;;;;;;;2.99;97.43;95539.59;5095450;28;1914;-58
2023/12/31 04:00:26;;;;;;;;;;;;;;;2.98;98.42;95547.59;5095457;28;1400;-58
2023/12/31 04:03:01;;;;;;;;;;;;;;;3.06;98.27;95545.31;5095450;28;944;-58
2023/12/31 04:05:35;;;;;;;;;;;;;;;2.96;98.41;95547.75;5095324;28;922;-58
2023/12/31 04:08:10;;;;;;;;;;;;;;;2.97;98.48;95551.22;5095453;28;1016;-58
2023/12/31 04:10:44;;;;;;;;;;;;;;;2.87;98.99;95546.56;5095141;28;1564;-58
2023/12/31 04:13:18;;;;;;;;;;;;;;;2.95;99.00;95556.59;5095128;28;1172;-58
2023/12/31 04:15:52;;;;;;;;;;;;;;;2.89;98.46;95557.88;5094994;28;1120;-58
2023/12/31 04:18:27;;;;;;;;;;;;;;;2.63;98.82;95570.19;5113184;28;1972;-58
2023/12/31 04:21:00;;;;;;;;;;;;;;;2.66;99.04;95574.44;5115666;28;1618;-58
2023/12/31 04:23:34;;;;;;;;;;;;;;;2.57;99.56;95572.41;5115383;28;1011;-58
2023/12/31 04:26:09;;;;;;;;;;;;;;;2.63;99.13;95570.19;5115336;28;1065;-58
2023/12/31 04:28:43;;;;;;;;;;;;;;;2.70;99.58;95570.63;5115516;28;1212;-58
2023/12/31 04:31:15;;;;;;;;;;;;;;;2.73;98.91;95571.28;5115342;28;1358;-58
2023/12/31 04:33:49;;;;;;;;;;;;;;;2.79;99.18;95577.06;5098199;28;1004;-58
2023/12/31 04:36:21;;;;;;;;;;;;;;;2.74;98.69;95566.81;5115206;28;1471;-58
2023/12/31 04:38:53;;;;;;;;;;;;;;;2.42;98.37;95577.72;5114949;28;1918;-58
2023/12/31 04:41:25;;;;;;;;;;;;;;;2.45;99.60;95574.06;5114759;28;1648;-58
2023/12/31 04:43:59;;;;;;;;;;;;;;;2.53;99.40;95577.88;5097756;28;1544;-58
2023/12/31 04:46:32;;;;;;;;;;;;;;;2.44;99.43;95583.75;5097868;28;1774;-58
2023/12/31 04:49:05;;;;;;;;;;;;;;;2.49;99.44;95580.81;5115033;28;1545;-58
2023/12/31 04:51:38;;;;;;;;;;;;;;;2.47;99.47;95585.38;5114871;28;1506;-58
2023/12/31 04:54:11;;;;;;;;;;;;;;;2.27;98.59;95589.28;5114797;28;1499;-58
2023/12/31 04:56:41;;;;;;;;;;;;;;;2.37;98.74;95589.53;5114441;28;1404;-58
2023/12/31 04:59:13;;;;;;;;;;;;;;;2.40;98.74;95584.06;5114442;28;1914;-58
2023/12/31 05:01:50;;;;;;;;;;;;;;;2.42;98.92;95588.28;5114755;28;1507;-57
2023/12/31 05:04:22;;;;;;;;;;;;;;;2.47;99.09;95590.66;5114315;28;1543;-57
2023/12/31 05:06:54;;;;;;;;;;;;;;;2.44;97.83;95591.66;5114733;28;1638;-58
2023/12/31 05:09:27;;;;;;;;;;;;;;;2.31;97.72;95590.78;5114342;28;1461;-58
2023/12/31 05:11:59;;;;;;;;;;;;;;;2.17;99.50;95588.22;5114659;28;1819;-58
2023/12/31 05:14:33;;;;;;;;;;;;;;;2.29;100.00;95585.59;5113912;28;1517;-57
2023/12/31 05:17:05;;;;;;;;;;;;;;;2.31;99.67;95585.50;5114452;28;1914;-58
2023/12/31 05:19:37;;;;;;;;;;;;;;;2.37;99.13;95584.25;5114518;28;1432;-58
2023/12/31 05:22:09;;;;;;;;;;;;;;;2.30;100.00;95583.81;5114136;28;1759;-58
2023/12/31 05:24:40;;;;;;;;;;;;;;;2.31;100.00;95585.50;5114288;28;2510;-57
2023/12/31 05:27:14;;;;;;;;;;;;;;;2.31;99.95;95588.13;5114502;28;1518;-57
2023/12/31 05:29:46;;;;;;;;;;;;;;;2.37;99.61;95584.25;5114365;28;1476;-57
2023/12/31 05:32:18;;;;;;;;;;;;;;;2.38;99.27;95592.06;5097094;28;1504;-58
2023/12/31 05:34:51;;;;;;;;;;;;;;;2.32;98.93;95592.50;5114280;28;1503;-58
2023/12/31 05:37:23;;;;;;;;;;;;;;;2.32;98.43;95592.50;5114038;28;1998;-58
2023/12/31 05:39:55;;;;;;;;;;;;;;;2.30;99.02;95592.59;5113906;28;1535;-58
2023/12/31 05:42:28;;;;;;;;;;;;;;;2.37;98.93;95593.00;5114055;28;1444;-58
2023/12/31 05:45:01;;;;;;;;;;;;;;;2.38;99.01;95591.25;5114145;28;1568;-58
2023/12/31 05:47:35;;;;;;;;;;;;;;;2.39;98.97;95592.91;5113918;28;914;-58
2023/12/31 05:50:08;;;;;;;;;;;;;;;2.31;97.68;95594.25;5114025;28;1437;-58
2023/12/31 05:52:40;;;;;;;;;;;;;;;2.03;99.06;95602.25;5114030;28;1535;-58
2023/12/31 05:55:15;;;;;;;;;;;;;;;1.90;98.28;95596.94;5113618;28;1755;-58
2023/12/31 05:57:48;;;;;;;;;;;;;;;1.88;98.50;95599.69;5113766;28;1909;-58
2023/12/31 06:00:20;;;;;;;;;;;;;;;1.85;98.35;95599.84;5113839;28;1530;-59
2023/12/31 06:02:55;;;;;;;;;;;;;;;1.75;98.58;95598.75;5114034;28;941;-58
2023/12/31 06:05:27;;;;;;;;;;;;;;;1.76;99.25;95592.53;5113506;28;1535;-60
2023/12/31 06:07:59;;;;;;;;;;;;;;;1.83;99.14;95601.75;5113871;28;1476;-60
2023/12/31 06:10:31;;;;;;;;;;;;;;;1.85;97.77;95597.22;5117237;28;1660;-59
2023/12/31 06:13:04;;;;;;;;;;;;;;;1.89;97.49;95601.34;5117764;28;1642;-60
2023/12/31 06:15:38;;;;;;;;;;;;;;;1.90;97.10;95603.06;5117691;28;1594;-60
2023/12/31 06:18:11;;;;;;;;;;;;;;;1.92;97.45;95602.97;5117601;28;2000;-60
2023/12/31 06:20:44;;;;;;;;;;;;;;;1.97;97.21;95598.22;5100774;28;978;-60
2023/12/31 06:23:16;;;;;;;;;;;;;;;1.94;96.42;95598.44;5117814;28;893;-60
2023/12/31 06:25:48;;;;;;;;;;;;;;;1.83;96.76;95603.53;5117789;28;1651;-60
2023/12/31 06:28:20;;;;;;;;;;;;;;;1.82;97.52;95615.03;5117559;28;1510;-60
2023/12/31 06:30:55;;;;;;;;;;;;;;;1.74;97.80;95607.59;5100728;28;1011;-60
2023/12/31 06:33:27;;;;;;;;;;;;;;;1.61;98.53;95612.78;5117600;28;1570;-59
2023/12/31 06:35:59;;;;;;;;;;;;;;;1.72;98.25;95610.31;5117182;28;1655;-60
2023/12/31 06:38:31;;;;;;;;;;;;;;;1.80;97.41;95617.75;5117265;28;1921;-60
2023/12/31 06:41:07;;;;;;;;;;;;;;;1.97;97.11;95613.22;5117515;28;1484;-60
2023/12/31 06:43:41;;;;;;;;;;;;;;;2.13;95.82;95613.94;5117480;28;1424;-60
2023/12/31 06:46:14;;;;;;;;;;;;;;;2.17;95.21;95615.44;5117343;28;1432;-59
2023/12/31 06:48:47;;;;;;;;;;;;;;;1.97;94.78;95610.56;5117351;28;1558;-60
2023/12/31 06:51:19;;;;;;;;;;;;;;;3.37;90.46;95607.44;5117236;28;1523;-60
2023/12/31 06:53:52;;;;;;;;;;;;;;;7.38;71.41;95623.63;5117295;28;1436;-60
2023/12/31 06:56:25;;;;;;;;;;;;;;;9.91;60.96;95630.44;5117153;28;1471;-60
2023/12/31 06:58:58;;;;;;;;;;;;;;;11.12;56.13;95634.72;5116862;28;1910;-60
2023/12/31 07:01:32;;;;;;;;;;;;;;;12.16;52.80;95633.22;5116951;28;1451;-60
2023/12/31 07:04:05;;;;;;;;;;;;;;;13.04;49.95;95646.28;5117044;28;1426;-60
2023/12/31 07:06:38;;;;;;;;;;;;;;;13.12;48.75;95652.69;5117031;28;1500;-60
2023/12/31 07:09:12;;;;;;;;;;;;;;;13.44;48.11;95644.69;5116913;28;1846;-60
2023/12/31 07:11:41;;;;;;;;;;;;;;;13.95;47.36;95649.91;5117141;28;1670;-59
2023/12/31 07:14:14;;;;;;;;;;;;;;;14.70;45.24;95664.91;5116837;28;2021;-59
2023/12/31 07:16:48;;;;;;;;;;;;;;;14.60;44.84;95669.63;5100023;28;945;-57
2023/12/31 07:19:21;;;;;;;;;;;;;;;14.22;45.71;95659.44;5116113;28;1918;-58
2023/12/31 07:21:53;;;;;;;;;;;;;;;13.82;46.88;95650.41;5116738;28;1987;-58
2023/12/31 07:24:28;;;;;;;;;;;;;;;13.66;47.11;95656.66;5116817;28;996;-58
2023/12/31 07:27:00;;;;;;;;;;;;;;;14.12;46.36;95655.28;5116675;28;1470;-58
2023/12/31 07:29:33;;;;;;;;;;;;;;;14.62;45.26;95663.03;5116224;28;1515;-58
2023/12/31 07:32:05;;;;;;;;;;;;;;;14.19;45.72;95657.09;5116698;28;1553;-57
2023/12/31 07:34:37;;;;;;;;;;;;;;;13.06;48.61;95643.44;5121795;27;1502;-58
2023/12/31 07:37:11;;;;;;;;;;;;;;;11.08;54.86;95627.19;5126727;27;1988;-57
2023/12/31 07:39:43;;;;;;;;;;;;;;;9.14;63.13;95602.88;5123241;27;1513;-58
2023/12/31 07:42:15;;;;;;;;;;;;;;;7.66;69.54;95586.66;5124811;27;1681;-57
2023/12/31 07:44:47;;;;;;;;;;;;;;;6.98;73.69;95579.13;5126326;27;1620;-57
2023/12/31 07:47:20;;;;;;;;;;;;;;;6.44;77.68;95595.97;5105090;27;1117;-57
2023/12/31 07:49:52;;;;;;;;;;;;;;;6.15;79.60;95608.97;5125287;27;1411;-57
2023/12/31 07:52:25;;;;;;;;;;;;;;;6.02;81.20;95615.25;5123847;27;1602;-57
2023/12/31 07:54:58;;;;;;;;;;;;;;;5.96;82.10;95615.72;5124793;27;1509;-57
2023/12/31 07:57:30;;;;;;;;;;;;;;;5.81;83.94;95611.59;5125203;27;1906;-57
2023/12/31 08:00:04;;;;;;;;;;;;;;;5.54;85.82;95606.63;5126611;27;1630;-57
2023/12/31 08:02:36;;;;;;;;;;;;;;;5.42;87.33;95619.03;5126779;27;1526;-57
2023/12/31 08:05:09;;;;;;;;;;;;;;;5.33;88.02;95617.09;5125875;27;1621;-57
2023/12/31 08:07:43;;;;;;;;;;;;;;;5.19;88.53;95613.69;5122190;27;1444;-57
2023/12/31 08:10:18;;;;;;;;;;;;;;;5.19;88.27;95623.44;5124375;27;1419;-57
2023/12/31 08:12:50;;;;;;;;;;;;;;;4.85;90.51;95623.34;5125136;27;1526;-57
2023/12/31 08:15:25;;;;;;;;;;;;;;;4.98;88.84;95615.31;5125639;27;1204;-58
2023/12/31 08:17:57;;;;;;;;;;;;;;;5.17;87.69;95628.03;5126064;27;2002;-57
2023/12/31 08:20:29;;;;;;;;;;;;;;;5.08;88.30;95621.59;5125400;27;1589;-57
2023/12/31 08:23:03;;;;;;;;;;;;;;;4.88;89.57;95621.31;5122174;27;1173;-57
2023/12/31 08:25:36;;;;;;;;;;;;;;;4.85;89.27;95624.19;5124184;27;1424;-57
2023/12/31 08:28:10;;;;;;;;;;;;;;;4.99;89.51;95624.94;5125972;27;1674;-57
2023/12/31 08:30:42;;;;;;;;;;;;;;;5.13;88.96;95623.94;5121799;27;1668;-57
2023/12/31 08:33:14;;;;;;;;;;;;;;;5.16;88.93;95618.38;5123599;27;1427;-57
2023/12/31 08:35:46;;;;;;;;;;;;;;;5.31;88.77;95617.19;5122679;27;1579;-57
2023/12/31 08:38:16;;;;;;;;;;;;;;;5.51;86.92;95612.19;5123673;27;1910;-57
2023/12/31 08:40:47;;;;;;;;;;;;;;;5.60;86.93;95620.28;5125124;27;1566;-57
2023/12/31 08:43:19;;;;;;;;;;;;;;;5.53;87.58;95616.41;5125898;27;1560;-57
2023/12/31 08:45:51;;;;;;;;;;;;;;;5.73;86.43;95614.88;5125467;27;1664;-57
2023/12/31 08:48:23;;;;;;;;;;;;;;;6.05;85.02;95625.63;5121732;27;1469;-57
2023/12/31 08:50:55;;;;;;;;;;;;;;;6.06;84.63;95610.53;5123754;27;1971;-57
2023/12/31 08:53:28;;;;;;;;;;;;;;;6.23;84.50;95609.19;5125566;27;1461;-57
2023/12/31 08:56:00;;;;;;;;;;;;;;;6.39;84.14;95608.78;5122383;27;1193;-57
2023/12/31 08:58:32;;;;;;;;;;;;;;;6.51;83.34;95610.47;5124102;27;1999;-57
2023/12/31 09:01:05;;;;;;;;;;;;;;;6.51;83.49;95606.97;5114769;28;1559;-58
2023/12/31 09:03:37;;;;;;;;;;;;;;;6.52;83.81;95601.50;5114811;28;1583;-58
2023/12/31 09:06:12;;;;;;;;;;;;;;;6.38;84.71;95604.47;5114816;28;961;-58
2023/12/31 09:08:42;;;;;;;;;;;;;;;6.28;85.22;95606.16;5114572;28;1578;-58
2023/12/31 09:11:15;;;;;;;;;;;;;;;6.34;85.17;95598.53;5119360;27;1436;-59
2023/12/31 09:13:48;;;;;;;;;;;;;;;6.41;84.77;95597.09;5124313;27;1506;-59
2023/12/31 09:16:20;;;;;;;;;;;;;;;6.54;84.14;95593.41;5120573;27;1520;-59
2023/12/31 09:18:53;;;;;;;;;;;;;;;6.77;82.43;95595.03;5122933;27;2336;-58
2023/12/31 09:21:28;;;;;;;;;;;;;;;6.93;81.43;95596.41;5106058;27;1292;-58
2023/12/31 09:24:00;;;;;;;;;;;;;;;7.13;81.20;95592.06;5120893;27;1364;-58
2023/12/31 09:26:32;;;;;;;;;;;;;;;7.56;79.20;95591.09;5122964;27;1648;-58
2023/12/31 09:29:04;;;;;;;;;;;;;;;7.89;77.94;95584.69;5105508;27;1624;-58
2023/12/31 09:31:37;;;;;;;;;;;;;;;8.09;77.41;95572.25;5125374;27;1634;-58
2023/12/31 09:34:11;;;;;;;;;;;;;;;8.42;76.19;95574.75;5124807;27;1390;-58
2023/12/31 09:36:42;;;;;;;;;;;;;;;8.66;74.76;95567.22;5121266;27;1419;-58
2023/12/31 09:39:14;;;;;;;;;;;;;;;8.93;73.98;95566.50;5122498;27;2004;-58
2023/12/31 09:41:52;;;;;;;;;;;;;;;8.95;73.64;95561.91;5123798;27;1602;-58
2023/12/31 09:44:23;;;;;;;;;;;;;;;9.04;72.96;95552.19;5120943;27;1443;-57
2023/12/31 09:47:06;;;;;;;;;;;;;;;9.03;72.77;95550.53;5122669;27;1569;-58
2023/12/31 09:49:40;;;;;;;;;;;;;;;9.01;72.95;95549.84;5122723;27;1467;-58
2023/12/31 09:52:13;;;;;;;;;;;;;;;9.39;71.88;95553.44;5122923;27;1779;-58
2023/12/31 09:54:42;;;;;;;;;;;;;;;9.56;71.54;95547.34;5119202;27;1477;-58
2023/12/31 09:57:15;;;;;;;;;;;;;;;9.65;72.02;95544.75;5124374;27;1913;-58
2023/12/31 09:59:50;;;;;;;;;;;;;;;9.93;70.05;95541.13;5123898;27;1370;-58
2023/12/31 10:02:22;;;;;;;;;;;;;;;10.52;68.99;95536.31;5120953;27;1383;-58
2023/12/31 10:04:54;;;;;;;;;;;;;;;10.84;65.95;95532.28;5122681;27;1292;-58
2023/12/31 10:07:26;;;;;;;;;;;;;;;10.59;66.37;95528.56;5123649;28;1479;-58
2023/12/31 10:09:59;;;;;;;;;;;;;;;10.50;67.93;95524.94;5124721;28;1646;-58
2023/12/31 10:12:32;;;;;;;;;;;;;;;10.43;68.66;95525.69;5127985;28;1498;-57
2023/12/31 10:15:04;;;;;;;;;;;;;;;10.40;67.97;95523.34;5130925;28;1610;-58
2023/12/31 10:17:36;;;;;;;;;;;;;;;10.72;67.27;95510.28;5134079;28;1906;-58
2023/12/31 10:20:09;;;;;;;;;;;;;;;10.61;67.16;95515.03;5125631;28;1462;-58
2023/12/31 10:22:41;;;;;;;;;;;;;;;10.33;67.66;95513.25;5103656;28;1595;-58
2023/12/31 10:25:15;;;;;;;;;;;;;;;10.57;67.85;95498.47;5122335;28;1626;-58
2023/12/31 10:27:47;;;;;;;;;;;;;;;10.63;66.94;95497.84;5122470;28;1216;-58
2023/12/31 10:30:22;;;;;;;;;;;;;;;10.57;66.64;95490.44;5120418;28;1538;-58
2023/12/31 10:33:06;;;;;;;;;;;;;;;10.89;66.98;95491.72;5116503;28;1479;-59
2023/12/31 10:35:41;;;;;;;;;;;;;;;11.12;65.50;95482.19;5113237;28;1612;-58
2023/12/31 10:38:13;;;;;;;;;;;;;;;11.16;64.96;95487.25;5113293;28;1995;-57
2023/12/31 10:40:47;;;;;;;;;;;;;;;11.38;64.78;95473.31;5093165;28;1488;-58
2023/12/31 10:43:20;;;;;;;;;;;;;;;11.55;64.51;95471.56;5093099;28;930;-57
2023/12/31 10:45:55;;;;;;;;;;;;;;;11.41;65.42;95467.66;5093222;28;1008;-57
2023/12/31 10:48:27;;;;;;;;;;;;;;;12.02;63.29;95468.47;5092941;28;1457;-57
2023/12/31 10:51:05;;;;;;;;;;;;;;;12.07;61.76;95459.94;5093077;28;1546;-61
2023/12/31 10:53:37;;;;;;;;;;;;;;;12.37;61.69;95454.97;5093489;28;1452;-57
2023/12/31 10:56:11;;;;;;;;;;;;;;;12.70;61.78;95447.81;5106941;28;1539;-56
2023/12/31 10:58:51;;;;;;;;;;;;;;;12.48;59.72;95443.94;5117025;28;1906;-57
2023/12/31 11:01:31;;;;;;;;;;;;;;;12.73;60.68;95433.22;5114717;28;1586;-57
2023/12/31 11:04:06;;;;;;;;;;;;;;;12.88;59.82;95434.22;5115131;28;1717;-58
2023/12/31 11:06:42;;;;;;;;;;;;;;;12.95;60.88;95424.50;5114620;28;1465;-57
2023/12/31 11:09:33;;;;;;;;;;;;;;;12.85;59.26;95418.47;5117609;28;2304;-57
2023/12/31 11:12:07;;;;;;;;;;;;;;;12.43;60.29;95409.59;5117500;27;1541;-57
2023/12/31 11:14:46;;;;;;;;;;;;;;;12.56;60.93;95405.56;5122493;27;1447;-58
2023/12/31 11:17:38;;;;;;;;;;;;;;;12.48;60.52;95398.34;5125338;27;1967;-57
2023/12/31 11:20:16;;;;;;;;;;;;;;;12.75;61.12;95389.16;5123275;27;1436;-57
2023/12/31 11:22:51;;;;;;;;;;;;;;;12.60;60.10;95388.97;5125811;27;1496;-57
2023/12/31 11:25:24;;;;;;;;;;;;;;;12.72;58.20;95394.84;5126688;27;1608;-57
2023/12/31 11:27:57;;;;;;;;;;;;;;;13.02;59.83;95379.88;5126220;27;1408;-57
2023/12/31 11:30:49;;;;;;;;;;;;;;;13.36;58.87;95378.00;5098988;28;1371;-58
2023/12/31 11:33:22;;;;;;;;;;;;;;;13.38;58.91;95374.13;5116261;28;2265;-57
2023/12/31 11:35:56;;;;;;;;;;;;;;;13.24;57.49;95375.66;5116514;28;1608;-57
2023/12/31 11:38:49;;;;;;;;;;;;;;;12.77;57.93;95364.84;5116168;28;2032;-58
2023/12/31 11:41:24;;;;;;;;;;;;;;;12.94;60.00;95363.81;5115937;28;1655;-58
2023/12/31 11:43:56;;;;;;;;;;;;;;;13.05;59.20;95363.44;5116463;28;1474;-57
2023/12/31 11:46:30;;;;;;;;;;;;;;;12.97;58.55;95365.28;5116351;28;1513;-57
2023/12/31 11:49:06;;;;;;;;;;;;;;;13.01;59.22;95362.13;5116397;28;1056;-57
2023/12/31 11:51:51;;;;;;;;;;;;;;;12.87;59.50;95350.22;5116083;28;1302;-57
2023/12/31 11:54:24;;;;;;;;;;;;;;;12.76;60.89;95341.69;5116065;28;1570;-58
2023/12/31 11:56:56;;;;;;;;;;;;;;;12.67;60.75;95340.84;5116024;28;1686;-57
2023/12/31 11:59:28;;;;;;;;;;;;;;;12.43;59.93;95336.34;5115669;28;1910;-57
2023/12/31 12:02:01;;;;;;;;;;;;;;;12.27;60.74;95330.00;5116020;28;1437;-57
2023/12/31 12:04:34;;;;;;;;;;;;;;;12.25;61.61;95329.28;5116547;27;1710;-57
2023/12/31 12:07:05;;;;;;;;;;;;;;;12.02;62.37;95328.28;5123591;27;1696;-57
2023/12/31 12:09:39;;;;;;;;;;;;;;;11.78;61.79;95323.69;5125637;27;1540;-57
2023/12/31 12:12:10;;;;;;;;;;;;;;;11.98;62.97;95327.78;5109450;27;1667;-57
2023/12/31 12:14:43;;;;;;;;;;;;;;;12.00;63.07;95316.91;5109051;27;1804;-58
2023/12/31 12:17:18;;;;;;;;;;;;;;;11.62;63.26;95314.59;5123593;27;1668;-57
2023/12/31 12:19:50;;;;;;;;;;;;;;;11.82;63.87;95312.50;5124593;27;1543;-57
2023/12/31 12:22:23;;;;;;;;;;;;;;;12.05;62.68;95315.38;5124925;27;1506;-58
2023/12/31 12:24:55;;;;;;;;;;;;;;;12.26;61.94;95316.75;5121483;27;1577;-57
2023/12/31 12:27:28;;;;;;;;;;;;;;;12.36;62.94;95311.22;5124084;27;1534;-57
2023/12/31 12:30:01;;;;;;;;;;;;;;;12.33;61.31;95311.53;5106499;27;1551;-58
2023/12/31 12:32:35;;;;;;;;;;;;;;;12.28;61.62;95304.84;5119272;27;1619;-57
2023/12/31 12:49:20;;;;;;;;;;;;;;;11.91;63.98;95289.22;5050120;28;1046;-57
2023/12/31 12:51:51;;;;;;;;;;;;;;;11.90;63.68;95296.44;5052062;28;1736;-57
2023/12/31 12:54:21;;;;;;;;;;;;;;;11.95;63.42;95295.09;5050213;28;1311;-56
2023/12/31 12:56:53;;;;;;;;;;;;;;;11.97;64.46;95291.28;5050982;28;1567;-57
2023/12/31 12:59:27;;;;;;;;;;;;;;;11.95;65.32;95295.09;5051307;28;2007;-57
2023/12/31 13:02:02;;;;;;;;;;;;;;;11.92;65.55;95290.94;5051755;28;993;-57
2023/12/31 13:04:34;;;;;;;;;;;;;;;11.80;65.28;95285.03;5044283;28;1906;-57
2023/12/31 13:07:06;;;;;;;;;;;;;;;11.66;64.96;95285.66;5090287;28;1845;-56
2023/12/31 13:09:38;;;;;;;;;;;;;;;11.65;66.08;95289.34;5114517;28;1793;-55
2023/12/31 13:15:33;;;;;;;;;;;;;;;11.62;65.72;95287.81;5888240;22;4245;-57
2023/12/31 13:18:06;;;;;;;;;;;;;;;11.58;65.21;95286.47;5053325;28;1915;-57
2023/12/31 13:20:38;;;;;;;;;;;;;;;11.57;65.05;95281.28;5053828;28;1709;-57
2023/12/31 13:23:11;;;;;;;;;;;;;;;11.46;66.44;95280.59;5053748;28;1449;-59
2023/12/31 13:25:42;;;;;;;;;;;;;;;11.44;68.36;95279.94;5053275;28;1596;-60
2023/12/31 13:28:15;;;;;;;;;;;;;;;11.45;68.39;95273.56;5036160;28;1651;-60
2023/12/31 13:30:48;;;;;;;;;;;;;;;11.42;68.80;95276.59;5053317;28;1525;-59
2023/12/31 13:33:23;;;;;;;;;;;;;;;11.41;69.66;95274.88;5040762;28;1359;-59
2023/12/31 13:35:55;;;;;;;;;;;;;;;11.45;70.71;95276.22;5052944;28;1594;-59
2023/12/31 13:38:27;;;;;;;;;;;;;;;11.45;70.87;95281.59;5052982;28;1922;-59
2023/12/31 13:41:00;;;;;;;;;;;;;;;11.42;71.04;95275.72;5053245;28;1547;-60
2023/12/31 13:43:31;;;;;;;;;;;;;;;11.41;69.45;95277.56;5052246;28;1615;-59
2023/12/31 13:46:03;;;;;;;;;;;;;;;11.40;70.04;95275.91;5033187;28;1632;-59
2023/12/31 13:48:35;;;;;;;;;;;;;;;11.58;72.58;95282.97;5033128;28;1029;-58
2023/12/31 13:51:08;;;;;;;;;;;;;;;11.60;71.95;95289.00;5033354;28;1403;-59
2023/12/31 13:53:42;;;;;;;;;;;;;;;11.47;68.14;95284.94;5038707;28;1451;-59
2023/12/31 13:56:14;;;;;;;;;;;;;;;11.39;72.46;95284.09;5052151;28;1424;-58